createdAt,value
2019-05-01T00:01:29.515Z,36.53
2019-05-01T00:03:59.649Z,39.53
2019-05-01T00:06:29.811Z,37.70
2019-05-01T00:08:58.397Z,35.52
2019-05-01T00:11:28.302Z,35.65
2019-05-01T00:13:56.752Z,37.17
2019-05-01T00:16:25.271Z,35.23
2019-05-01T00:18:53.744Z,41.23
2019-05-01T00:21:22.208Z,38.50
2019-05-01T00:23:50.708Z,39.48
2019-05-01T00:26:19.279Z,38.00
2019-05-01T00:28:47.799Z,38.17
2019-05-01T00:31:16.652Z,36.03
2019-05-01T00:33:45.150Z,39.27
2019-05-01T00:36:13.760Z,37.85
2019-05-01T00:38:42.200Z,40.43
2019-05-01T00:41:10.664Z,43.80
2019-05-01T00:43:39.172Z,37.05
2019-05-01T00:46:07.615Z,36.63
2019-05-01T00:48:36.084Z,43.05
2019-05-01T00:51:04.660Z,41.65
2019-05-01T00:53:33.104Z,39.80
2019-05-01T00:56:03.225Z,38.70
2019-05-01T00:58:49.518Z,36.45
2019-05-01T01:01:36.182Z,37.67
2019-05-01T01:04:05.125Z,39.42
2019-05-01T01:06:33.572Z,37.10
2019-05-01T01:09:02.147Z,35.08
2019-05-01T01:11:30.656Z,37.05
2019-05-01T01:13:59.404Z,35.55
2019-05-01T01:16:27.892Z,36.43
2019-05-01T01:18:56.337Z,40.23
2019-05-01T01:21:25.021Z,37.08
2019-05-01T01:23:53.581Z,37.00
2019-05-01T01:26:22.081Z,40.30
2019-05-01T01:28:50.590Z,37.65
2019-05-01T01:31:19.077Z,35.70
2019-05-01T01:33:47.589Z,38.85
2019-05-01T01:36:16.045Z,40.43
2019-05-01T01:38:44.600Z,37.00
2019-05-01T01:41:13.185Z,37.00
2019-05-01T01:43:58.785Z,37.50
2019-05-01T01:46:28.942Z,45.50
2019-05-01T01:48:58.420Z,42.20
2019-05-01T01:51:26.969Z,39.55
2019-05-01T01:53:56.843Z,40.03
2019-05-01T01:56:25.631Z,43.25
2019-05-01T01:58:54.545Z,35.77
2019-05-01T02:01:31.031Z,44.27
2019-05-01T02:04:04.415Z,40.35
2019-05-01T02:06:33.003Z,42.95
2019-05-01T02:09:01.581Z,46.30
2019-05-01T02:11:30.119Z,47.70
2019-05-01T02:13:58.704Z,49.10
2019-05-01T02:16:27.644Z,43.02
2019-05-01T02:18:56.183Z,48.40
2019-05-01T02:21:24.700Z,47.35
2019-05-01T02:23:53.210Z,47.23
2019-05-01T02:26:23.789Z,48.83
2019-05-01T02:28:54.454Z,51.63
2019-05-01T02:31:32.292Z,48.38
2019-05-01T02:34:03.151Z,48.00
2019-05-01T02:36:32.506Z,55.00
2019-05-01T02:39:02.189Z,52.98
2019-05-01T02:44:02.985Z,48.65
2019-05-01T02:46:34.261Z,47.23
2019-05-01T02:49:08.791Z,42.95
2019-05-01T02:51:40.402Z,45.35
2019-05-01T02:54:10.394Z,47.85
2019-05-01T02:56:42.424Z,49.73
2019-05-01T02:59:12.006Z,46.58
2019-05-01T03:01:47.132Z,45.28
2019-05-01T03:04:11.893Z,47.75
2019-05-01T03:06:40.877Z,47.60
2019-05-01T03:09:09.468Z,50.33
2019-05-01T03:11:40.122Z,50.45
2019-05-01T03:14:11.677Z,47.53
2019-05-01T03:16:41.328Z,48.70
2019-05-01T03:19:15.562Z,53.05
2019-05-01T03:21:55.264Z,53.25
2019-05-01T03:26:54.025Z,49.88
2019-05-01T03:29:23.101Z,47.27
2019-05-01T03:32:14.342Z,45.60
2019-05-01T03:34:22.237Z,42.10
2019-05-01T03:36:50.772Z,38.33
2019-05-01T03:39:19.372Z,39.27
2019-05-01T03:41:48.160Z,32.95
2019-05-01T03:44:17.427Z,34.20
2019-05-01T03:46:46.530Z,30.50
2019-05-01T03:49:15.304Z,29.52
2019-05-01T03:51:44.501Z,28.43
2019-05-01T03:54:13.522Z,28.05
2019-05-01T03:56:42.515Z,27.58
2019-05-01T03:59:11.099Z,29.10
2019-05-01T04:01:41.723Z,29.63
2019-05-01T04:04:12.095Z,31.65
2019-05-01T04:06:41.040Z,30.90
2019-05-01T04:09:09.506Z,29.65
2019-05-01T04:11:38.023Z,29.90
2019-05-01T04:14:06.611Z,31.37
2019-05-01T04:16:35.593Z,30.48
2019-05-01T04:19:05.117Z,33.28
2019-05-01T04:21:35.284Z,31.40
2019-05-01T04:24:04.000Z,35.03
2019-05-01T04:26:32.609Z,35.25
2019-05-01T04:29:02.759Z,36.75
2019-05-01T04:31:33.379Z,35.08
2019-05-01T04:34:03.903Z,37.53
2019-05-01T04:36:37.654Z,36.95
2019-05-01T04:39:09.016Z,35.68
2019-05-01T04:41:37.702Z,35.45
2019-05-01T04:44:06.315Z,34.83
2019-05-01T04:46:35.696Z,33.73
2019-05-01T04:49:04.362Z,33.00
2019-05-01T04:51:33.172Z,33.28
2019-05-01T04:54:01.875Z,33.25
2019-05-01T04:56:30.647Z,30.73
2019-05-01T04:58:59.889Z,34.23
2019-05-01T05:01:30.115Z,34.85
2019-05-01T05:03:59.338Z,36.35
2019-05-01T05:06:28.137Z,32.83
2019-05-01T05:08:57.309Z,33.90
2019-05-01T05:11:27.540Z,32.38
2019-05-01T05:14:15.858Z,31.17
2019-05-01T05:16:51.969Z,30.55
2019-05-01T05:19:20.957Z,30.57
2019-05-01T05:21:49.847Z,29.95
2019-05-01T05:24:18.425Z,35.35
2019-05-01T05:26:47.153Z,31.30
2019-05-01T05:29:19.209Z,34.33
2019-05-01T05:31:49.065Z,35.03
2019-05-01T05:34:20.449Z,33.23
2019-05-01T05:36:52.759Z,30.80
2019-05-01T05:39:31.826Z,28.83
2019-05-01T05:42:01.990Z,31.52
2019-05-01T05:44:30.560Z,24.20
2019-05-01T05:46:59.185Z,26.05
2019-05-01T05:49:27.698Z,26.07
2019-05-01T05:51:59.778Z,29.10
2019-05-01T05:54:31.852Z,21.37
2019-05-01T05:57:05.121Z,21.65
2019-05-01T05:59:39.718Z,25.10
2019-05-01T06:02:12.935Z,20.40
2019-05-01T06:05:01.169Z,21.90
2019-05-01T06:07:50.610Z,21.75
2019-05-01T06:10:28.158Z,18.98
2019-05-01T06:13:17.897Z,20.92
2019-05-01T06:15:52.129Z,20.20
2019-05-01T06:18:22.472Z,19.00
2019-05-01T06:20:57.246Z,19.87
2019-05-01T06:23:29.618Z,19.98
2019-05-01T06:26:02.849Z,19.52
2019-05-01T06:28:31.922Z,23.05
2019-05-01T06:31:17.758Z,20.72
2019-05-01T06:33:48.385Z,19.90
2019-05-01T06:36:15.047Z,16.10
2019-05-01T06:38:44.662Z,17.42
2019-05-01T06:41:14.313Z,16.97
2019-05-01T06:46:14.261Z,17.90
2019-05-01T06:49:02.608Z,20.08
2019-05-01T06:57:20.195Z,19.17
2019-05-01T06:59:48.989Z,21.02
2019-05-01T07:02:18.772Z,17.07
2019-05-01T07:04:49.530Z,18.62
2019-05-01T07:07:27.634Z,15.98
2019-05-01T07:09:52.930Z,18.55
2019-05-01T07:12:23.959Z,18.20
2019-05-01T07:14:55.494Z,15.75
2019-05-01T07:17:24.010Z,20.00
2019-05-01T07:20:11.985Z,14.87
2019-05-01T07:22:42.158Z,16.40
2019-05-01T07:25:11.539Z,14.43
2019-05-01T07:27:40.144Z,16.40
2019-05-01T07:30:15.859Z,14.35
2019-05-01T07:32:42.803Z,15.72
2019-05-01T07:35:11.653Z,18.67
2019-05-01T07:37:40.245Z,13.07
2019-05-01T07:40:09.028Z,16.05
2019-05-01T07:42:48.246Z,15.00
2019-05-01T07:45:20.979Z,13.03
2019-05-01T07:47:51.989Z,11.70
2019-05-01T07:50:23.867Z,11.63
2019-05-01T07:52:52.195Z,13.62
2019-05-01T07:55:37.764Z,18.27
2019-05-01T07:58:15.812Z,14.65
2019-05-01T08:00:45.649Z,12.28
2019-05-01T08:03:14.117Z,11.43
2019-05-01T08:05:45.556Z,12.98
2019-05-01T08:08:12.925Z,16.70
2019-05-01T08:10:41.517Z,17.27
2019-05-01T08:13:09.962Z,12.40
2019-05-01T08:15:38.529Z,11.53
2019-05-01T08:18:17.793Z,12.20
2019-05-01T08:20:50.380Z,8.88
2019-05-01T08:23:20.093Z,12.47
2019-05-01T08:25:48.540Z,10.93
2019-05-01T08:28:18.661Z,14.13
2019-05-01T08:30:52.735Z,11.68
2019-05-01T08:33:20.639Z,11.50
2019-05-01T08:35:49.121Z,10.72
2019-05-01T08:38:17.580Z,16.67
2019-05-01T08:40:46.061Z,10.68
2019-05-01T08:43:18.173Z,9.70
2019-05-01T08:45:49.269Z,10.48
2019-05-01T08:48:25.371Z,13.10
2019-05-01T08:50:54.524Z,11.93
2019-05-01T08:53:23.984Z,13.20
2019-05-01T08:55:52.615Z,13.38
2019-05-01T08:58:21.058Z,11.43
2019-05-01T09:00:49.517Z,11.08
2019-05-01T09:03:18.865Z,9.75
2019-05-01T09:05:52.292Z,11.43
2019-05-01T09:08:18.435Z,11.25
2019-05-01T09:10:49.471Z,11.80
2019-05-01T09:13:18.839Z,10.03
2019-05-01T09:15:48.274Z,10.70
2019-05-01T09:18:18.887Z,9.48
2019-05-01T09:20:49.209Z,9.15
2019-05-01T09:23:17.725Z,8.98
2019-05-01T09:25:54.195Z,10.63
2019-05-01T09:28:30.250Z,10.65
2019-05-01T09:31:02.166Z,9.75
2019-05-01T09:33:31.976Z,11.38
2019-05-01T09:36:00.841Z,9.35
2019-05-01T09:38:29.529Z,13.60
2019-05-01T09:40:58.065Z,10.90
2019-05-01T09:43:26.509Z,10.85
2019-05-01T09:45:55.059Z,10.15
2019-05-01T09:48:23.654Z,12.25
2019-05-01T09:50:56.403Z,12.33
2019-05-01T09:53:34.267Z,11.15
2019-05-01T09:56:07.710Z,7.37
2019-05-01T09:58:37.218Z,8.73
2019-05-01T10:01:05.866Z,9.38
2019-05-01T10:03:34.289Z,9.70
2019-05-01T10:06:02.911Z,9.00
2019-05-01T10:08:34.959Z,7.87
2019-05-01T10:11:05.082Z,8.75
2019-05-01T10:13:31.709Z,9.18
2019-05-01T10:16:01.929Z,8.38
2019-05-01T10:18:30.365Z,5.53
2019-05-01T10:20:58.838Z,8.65
2019-05-01T10:23:27.297Z,7.90
2019-05-01T10:25:57.375Z,6.90
2019-05-01T10:28:36.581Z,9.40
2019-05-01T10:31:11.818Z,6.55
2019-05-01T10:33:41.358Z,10.85
2019-05-01T10:36:19.146Z,9.58
2019-05-01T10:38:46.746Z,9.28
2019-05-01T10:41:14.918Z,9.20
2019-05-01T10:43:43.429Z,6.53
2019-05-01T10:46:11.900Z,9.70
2019-05-01T10:48:40.333Z,8.05
2019-05-01T10:51:08.802Z,8.30
2019-05-01T10:53:37.272Z,8.15
2019-05-01T10:56:05.712Z,7.70
2019-05-01T10:58:34.158Z,9.58
2019-05-01T11:01:04.284Z,9.13
2019-05-01T11:03:32.793Z,9.65
2019-05-01T11:06:01.309Z,9.43
2019-05-01T11:08:29.780Z,6.15
2019-05-01T11:10:58.221Z,7.47
2019-05-01T11:13:26.673Z,7.92
2019-05-01T11:15:55.229Z,10.10
2019-05-01T11:18:23.670Z,7.35
2019-05-01T11:20:52.113Z,8.70
2019-05-01T11:23:20.617Z,8.95
2019-05-01T11:25:49.069Z,11.30
2019-05-01T11:28:17.578Z,7.65
2019-05-01T11:30:46.304Z,10.20
2019-05-01T11:33:19.560Z,10.07
2019-05-01T11:36:09.686Z,12.37
2019-05-01T11:38:43.754Z,11.33
2019-05-01T11:41:22.509Z,8.68
2019-05-01T11:43:50.947Z,9.58
2019-05-01T11:46:19.461Z,10.53
2019-05-01T11:48:48.504Z,8.10
2019-05-01T11:51:17.059Z,8.13
2019-05-01T11:53:45.576Z,22.77
2019-05-01T11:56:14.220Z,8.40
2019-05-01T11:58:42.667Z,10.37
2019-05-01T12:01:12.761Z,10.45
2019-05-01T12:03:41.241Z,8.98
2019-05-01T12:06:22.153Z,10.95
2019-05-01T12:08:39.851Z,10.98
2019-05-01T12:11:09.695Z,12.13
2019-05-01T12:13:43.889Z,9.08
2019-05-01T12:16:12.404Z,10.48
2019-05-01T12:18:40.897Z,11.48
2019-05-01T12:21:09.567Z,8.33
2019-05-01T12:23:38.040Z,12.70
2019-05-01T12:26:06.761Z,13.73
2019-05-01T12:28:35.205Z,10.55
2019-05-01T12:31:04.120Z,11.23
2019-05-01T12:33:33.561Z,10.95
2019-05-01T12:36:03.637Z,13.20
2019-05-01T12:38:32.076Z,10.13
2019-05-01T12:41:14.150Z,10.78
2019-05-01T12:43:42.678Z,10.95
2019-05-01T12:46:12.838Z,12.70
2019-05-01T12:48:41.393Z,11.68
2019-05-01T12:51:10.205Z,12.07
2019-05-01T12:53:43.238Z,11.63
2019-05-01T12:56:16.042Z,11.70
2019-05-01T12:58:44.625Z,10.45
2019-05-01T13:01:13.145Z,10.00
2019-05-01T13:03:41.623Z,12.97
2019-05-01T13:06:10.069Z,9.43
2019-05-01T13:08:38.532Z,8.93
2019-05-01T13:11:07.100Z,10.37
2019-05-01T13:13:35.542Z,9.80
2019-05-01T13:16:04.116Z,10.87
2019-05-01T13:18:32.607Z,9.60
2019-05-01T13:21:01.042Z,8.57
2019-05-01T13:23:29.622Z,9.23
2019-05-01T13:25:59.740Z,9.43
2019-05-01T13:28:45.146Z,9.48
2019-05-01T13:31:21.610Z,10.43
2019-05-01T13:33:50.398Z,9.93
2019-05-01T13:36:18.913Z,12.60
2019-05-01T13:38:47.465Z,10.65
2019-05-01T13:41:15.936Z,8.65
2019-05-01T13:43:44.512Z,9.80
2019-05-01T13:46:13.062Z,11.07
2019-05-01T13:48:41.574Z,8.50
2019-05-01T13:51:10.094Z,10.13
2019-05-01T13:53:38.563Z,10.70
2019-05-01T13:56:07.249Z,13.97
2019-05-01T13:58:35.773Z,11.50
2019-05-01T14:01:04.514Z,11.53
2019-05-01T14:03:33.030Z,10.75
2019-05-01T14:06:01.482Z,12.68
2019-05-01T14:08:29.945Z,12.73
2019-05-01T14:10:58.393Z,11.77
2019-05-01T14:13:26.837Z,11.53
2019-05-01T14:15:55.322Z,12.82
2019-05-01T14:18:23.766Z,10.50
2019-05-01T14:21:02.866Z,10.87
2019-05-01T14:23:38.909Z,13.68
2019-05-01T14:26:08.315Z,9.38
2019-05-01T14:31:06.132Z,12.80
2019-05-01T14:33:34.608Z,11.73
2019-05-01T14:36:04.763Z,9.73
2019-05-01T14:38:33.203Z,11.70
2019-05-01T14:41:01.761Z,13.50
2019-05-01T14:43:30.286Z,11.83
2019-05-01T14:45:58.793Z,14.83
2019-05-01T14:48:27.278Z,14.07
2019-05-01T14:50:55.799Z,12.10
2019-05-01T14:53:24.243Z,12.40
2019-05-01T14:55:52.724Z,10.70
2019-05-01T14:58:21.244Z,12.17
2019-05-01T15:00:49.776Z,13.78
2019-05-01T15:03:18.242Z,11.70
2019-05-01T15:05:46.766Z,11.10
2019-05-01T15:08:15.232Z,11.63
2019-05-01T15:10:43.726Z,10.77
2019-05-01T15:13:26.008Z,11.10
2019-05-01T15:15:56.440Z,10.88
2019-05-01T15:18:43.088Z,11.55
2019-05-01T15:21:11.629Z,11.95
2019-05-01T15:23:52.883Z,12.57
2019-05-01T15:26:10.383Z,12.10
2019-05-01T15:28:38.863Z,11.87
2019-05-01T15:31:07.479Z,11.67
2019-05-01T15:33:35.991Z,14.25
2019-05-01T15:36:04.794Z,11.00
2019-05-01T15:38:33.449Z,9.13
2019-05-01T15:41:12.396Z,12.23
2019-05-01T15:43:42.551Z,10.72
2019-05-01T15:46:10.995Z,12.82
2019-05-01T15:48:39.493Z,13.13
2019-05-01T15:51:07.989Z,12.70
2019-05-01T15:53:36.429Z,9.98
2019-05-01T15:56:04.918Z,14.45
2019-05-01T15:58:33.508Z,11.20
2019-05-01T16:01:01.945Z,12.43
2019-05-01T16:03:30.416Z,9.88
2019-05-01T16:05:58.932Z,11.38
2019-05-01T16:08:27.369Z,11.43
2019-05-01T16:11:00.218Z,10.43
2019-05-01T16:13:28.656Z,10.93
2019-05-01T16:15:57.101Z,10.40
2019-05-01T16:18:25.620Z,10.82
2019-05-01T16:20:54.129Z,15.43
2019-05-01T16:23:22.567Z,9.28
2019-05-01T16:25:51.064Z,9.50
2019-05-01T16:28:19.740Z,9.85
2019-05-01T16:30:48.257Z,12.98
2019-05-01T16:33:16.725Z,10.32
2019-05-01T16:35:45.166Z,9.53
2019-05-01T16:38:23.165Z,13.35
2019-05-01T16:40:53.641Z,14.23
2019-05-01T16:43:22.084Z,11.38
2019-05-01T16:45:50.551Z,12.15
2019-05-01T16:48:19.022Z,10.68
2019-05-01T16:50:47.532Z,12.85
2019-05-01T16:53:16.130Z,12.68
2019-05-01T16:55:44.781Z,11.23
2019-05-01T16:58:14.956Z,12.77
2019-05-01T17:01:02.388Z,12.07
2019-05-01T17:03:32.681Z,11.50
2019-05-01T17:06:11.875Z,10.88
2019-05-01T17:08:41.964Z,16.85
2019-05-01T17:11:12.177Z,14.28
2019-05-01T17:13:40.782Z,11.93
2019-05-01T17:16:09.405Z,12.95
2019-05-01T17:18:37.861Z,15.47
2019-05-01T17:21:06.356Z,12.88
2019-05-01T17:23:34.833Z,12.33
2019-05-01T17:26:03.278Z,14.70
2019-05-01T17:28:34.524Z,14.18
2019-05-01T17:31:03.036Z,16.52
2019-05-01T17:33:31.554Z,17.52
2019-05-01T17:36:00.229Z,17.25
2019-05-01T17:38:28.684Z,16.90
2019-05-01T17:40:57.204Z,15.05
2019-05-01T17:43:25.787Z,19.07
2019-05-01T17:45:54.246Z,17.00
2019-05-01T17:48:23.370Z,21.50
2019-05-01T17:50:54.924Z,18.02
2019-05-01T17:53:22.105Z,22.77
2019-05-01T17:55:50.684Z,21.73
2019-05-01T17:58:19.164Z,22.10
2019-05-01T18:00:49.538Z,32.15
2019-05-01T18:03:28.686Z,33.48
2019-05-01T18:06:05.028Z,35.75
2019-05-01T18:08:33.585Z,36.48
2019-05-01T18:11:02.047Z,34.00
2019-05-01T18:13:31.122Z,36.68
2019-05-01T18:15:59.619Z,40.10
2019-05-01T18:18:28.298Z,40.88
2019-05-01T18:20:56.960Z,42.03
2019-05-01T18:23:47.593Z,41.90
2019-05-01T18:26:31.532Z,44.80
2019-05-01T18:29:05.839Z,46.05
2019-05-01T18:31:34.788Z,45.30
2019-05-01T18:34:04.509Z,47.33
2019-05-01T18:36:37.593Z,48.25
2019-05-01T18:39:16.813Z,49.73
2019-05-01T18:41:50.298Z,54.13
2019-05-01T18:44:20.121Z,55.03
2019-05-01T18:46:48.641Z,55.40
2019-05-01T18:49:17.269Z,57.73
2019-05-01T18:51:45.864Z,59.70
2019-05-01T18:54:14.389Z,61.60
2019-05-01T18:56:42.890Z,44.00
2019-05-01T18:59:11.419Z,48.30
2019-05-01T19:01:43.951Z,39.85
2019-05-01T19:04:10.241Z,40.45
2019-05-01T19:06:41.366Z,42.53
2019-05-01T19:09:15.123Z,32.10
2019-05-01T19:11:39.822Z,30.55
2019-05-01T19:14:08.719Z,27.07
2019-05-01T19:16:39.909Z,33.98
2019-05-01T19:19:07.470Z,25.02
2019-05-01T19:21:37.185Z,25.57
2019-05-01T19:24:06.088Z,22.15
2019-05-01T19:26:38.180Z,23.77
2019-05-01T19:29:05.194Z,24.07
2019-05-01T19:31:33.655Z,17.92
2019-05-01T19:34:02.287Z,20.72
2019-05-01T19:36:30.745Z,21.33
2019-05-01T19:38:59.256Z,19.10
2019-05-01T19:41:27.760Z,14.83
2019-05-01T19:43:56.274Z,14.78
2019-05-01T19:46:25.343Z,14.60
2019-05-01T19:48:53.841Z,16.02
2019-05-01T19:51:24.161Z,14.15
2019-05-01T19:53:53.563Z,19.20
2019-05-01T19:56:22.799Z,16.27
2019-05-01T19:58:51.685Z,15.63
2019-05-01T20:01:20.213Z,14.13
2019-05-01T20:03:48.759Z,14.87
2019-05-01T20:06:17.213Z,18.62
2019-05-01T20:08:45.720Z,17.95
2019-05-01T20:11:14.282Z,17.40
2019-05-01T20:13:42.808Z,19.12
2019-05-01T20:16:11.542Z,18.35
2019-05-01T20:18:40.031Z,18.27
2019-05-01T20:21:08.828Z,20.57
2019-05-01T20:23:37.297Z,19.02
2019-05-01T20:26:05.989Z,18.95
2019-05-01T20:28:34.447Z,18.95
2019-05-01T20:31:02.972Z,19.65
2019-05-01T20:33:33.436Z,19.87
2019-05-01T20:36:05.208Z,19.62
2019-05-01T20:38:31.812Z,24.60
2019-05-01T20:41:00.391Z,25.00
2019-05-01T20:43:28.834Z,24.63
2019-05-01T20:45:57.429Z,25.77
2019-05-01T20:48:26.337Z,27.37
2019-05-01T20:50:54.790Z,33.58
2019-05-01T20:53:23.237Z,25.50
2019-05-01T20:55:53.396Z,26.37
2019-05-01T20:58:22.416Z,29.52
2019-05-01T21:00:53.446Z,28.55
2019-05-01T21:03:22.801Z,30.27
2019-05-01T21:06:02.971Z,29.18
2019-05-01T21:08:42.805Z,27.67
2019-05-01T21:11:18.609Z,32.28
2019-05-01T21:13:47.114Z,28.35
2019-05-01T21:16:15.628Z,24.18
2019-05-01T21:18:44.149Z,25.05
2019-05-01T21:21:14.165Z,26.07
2019-05-01T21:23:43.466Z,30.10
2019-05-01T21:26:13.782Z,30.10
2019-05-01T21:28:44.772Z,30.43
2019-05-01T21:31:13.795Z,31.82
2019-05-01T21:33:48.972Z,37.80
2019-05-01T21:36:12.770Z,40.28
2019-05-01T21:38:41.325Z,37.38
2019-05-01T21:41:09.768Z,36.50
2019-05-01T21:43:38.312Z,36.90
2019-05-01T21:46:06.774Z,37.00
2019-05-01T21:48:35.213Z,33.90
2019-05-01T21:51:07.346Z,34.27
2019-05-01T21:53:37.254Z,34.35
2019-05-01T21:56:06.095Z,35.20
2019-05-01T21:58:35.928Z,37.33
2019-05-01T22:01:06.769Z,32.15
2019-05-01T22:03:35.282Z,39.08
2019-05-01T22:06:04.024Z,35.38
2019-05-01T22:08:34.372Z,34.78
2019-05-01T22:11:03.594Z,34.40
2019-05-01T22:13:32.273Z,33.35
2019-05-01T22:16:05.056Z,38.15
2019-05-01T22:18:37.805Z,41.65
2019-05-01T22:21:07.961Z,39.00
2019-05-01T22:23:54.548Z,40.78
2019-05-01T22:26:24.682Z,42.27
2019-05-01T22:28:56.043Z,44.30
2019-05-01T22:31:26.328Z,45.08
2019-05-01T22:33:56.438Z,43.60
2019-05-01T22:36:24.908Z,46.00
2019-05-01T22:38:53.409Z,43.42
2019-05-01T22:41:21.868Z,47.90
2019-05-01T22:43:50.377Z,49.05
2019-05-01T22:46:20.514Z,47.95
2019-05-01T22:48:48.953Z,56.25
2019-05-01T22:51:19.045Z,54.63
2019-05-01T22:53:49.447Z,55.08
2019-05-01T22:56:17.950Z,58.75
2019-05-01T22:58:46.397Z,57.67
2019-05-01T23:01:18.231Z,55.30
2019-05-01T23:03:50.707Z,62.75
2019-05-01T23:06:19.401Z,62.95
2019-05-01T23:08:47.912Z,60.97
2019-05-01T23:11:20.174Z,67.03
2019-05-01T23:13:46.900Z,59.18
2019-05-01T23:16:16.758Z,63.98
2019-05-01T23:18:47.151Z,64.27
2019-05-01T23:21:16.125Z,65.40
2019-05-01T23:23:44.771Z,72.45
2019-05-01T23:26:16.735Z,66.40
2019-05-01T23:28:43.549Z,65.15
2019-05-01T23:31:12.137Z,67.85
2019-05-01T23:33:40.584Z,65.00
2019-05-01T23:36:09.066Z,65.72
2019-05-01T23:38:37.512Z,61.50
2019-05-01T23:41:06.033Z,67.82
2019-05-01T23:43:34.540Z,65.05
2019-05-01T23:46:03.062Z,64.17
2019-05-01T23:48:31.518Z,61.58
2019-05-01T23:51:00.169Z,60.78
2019-05-01T23:53:28.689Z,58.57
2019-05-01T23:56:00.154Z,59.98
2019-05-01T23:58:27.414Z,58.10
